This is the latest recevied weather packets stored in our database for station/object WI0K. If no packets are shown the sender has not sent any weather packets the latest 10 day(s).
| Time | Temp. | Humidity | Pressure | Rain* | Wind** | Luminosity | Snow |
|---|---|---|---|---|---|---|---|
| 1788121669 | 27.78° C | 38% | 1018.8 hPa | 0 mm | - | 537 W/m² | - |
| 1788121360 | 28.33° C | 30% | 1018.5 hPa | 0 mm | - | 468 W/m² | - |
| 1788121059 | 28.33° C | 30% | 1018.3 hPa | 0 mm | - | 469 W/m² | - |
| 1788120758 | 28.33° C | 31% | 1018.2 hPa | 0 mm | - | 500 W/m² | - |
| 1788120458 | 28.33° C | 31% | 1018.2 hPa | 0 mm | - | 550 W/m² | - |
| 1788120157 | 27.78° C | 32% | 1018.2 hPa | 0 mm | - | 436 W/m² | - |
| 1788119856 | 27.78° C | 32% | 1018.2 hPa | 0 mm | - | 452 W/m² | - |
| 1788119556 | 27.78° C | 33% | 1018.2 hPa | 0 mm | - | 417 W/m² | - |
| 1788119255 | 27.78° C | 33% | 1018.1 hPa | 0 mm | - | 474 W/m² | - |
| 1788118954 | 27.78° C | 33% | 1018.2 hPa | 0 mm | - | 461 W/m² | - |
| 1788118654 | 27.78° C | 33% | 1018.1 hPa | 0 mm | - | 486 W/m² | - |
| 1788118352 | 27.78° C | 35% | 1018.1 hPa | 0 mm | - | 613 W/m² | - |
| 1788118051 | 27.78° C | 33% | 1018.1 hPa | 0 mm | - | 686 W/m² | - |
| 1788117751 | 27.78° C | 34% | 1018.1 hPa | 0 mm | - | 631 W/m² | - |
| 1788117450 | 27.78° C | 33% | 1018.2 hPa | 0 mm | - | 680 W/m² | - |
| 1788117149 | 27.22° C | 35% | 1018.2 hPa | 0 mm | - | 552 W/m² | - |
| 1788116848 | 27.22° C | 34% | 1018.2 hPa | 0 mm | - | 533 W/m² | - |
| 1788116548 | 27.22° C | 34% | 1018.3 hPa | 0 mm | - | 675 W/m² | - |
| 1788116247 | 26.67° C | 35% | 1018.3 hPa | 0 mm | - | 560 W/m² | - |
| 1788115946 | 26.67° C | 36% | 1018.4 hPa | 0 mm | - | 512 W/m² | - |
| 1788115645 | 26.67° C | 37% | 1018.5 hPa | 0 mm | - | 552 W/m² | - |
| 1788115345 | 26.67° C | 38% | 1018.5 hPa | 0 mm | - | 475 W/m² | - |
| 1788115044 | 26.67° C | 37% | 1018.6 hPa | 0 mm | - | 549 W/m² | - |
| 1788114743 | 26.67° C | 36% | 1018.6 hPa | 0 mm | - | 498 W/m² | - |
| 1788114442 | 26.11° C | 39% | 1018.6 hPa | 0 mm | - | 442 W/m² | - |
* Rain latest hour (hover to see other rain measurements)
** Current wind speed in m/s (hover to see current wind gust speed)